Time;durP1;ratioP1;P1;durP2;ratioP2;P2;SDS_P1;SDS_P2;PMS_P1;PMS_P2;Temp;Humidity;BMP_temperature;BMP_pressure;BME280_temperature;BME280_humidity;BME280_pressure;Samples;Min_cycle;Max_cycle;Signal;HPM_P1;HPM_P2
2021/04/08 00:01:49;;;;;;;14.02;2.78;;;;;;;;;;3585713;40;20280;-53
2021/04/08 00:04:14;;;;;;;8.55;2.20;;;;;;;;;;3586484;40;20028;-51
2021/04/08 00:06:40;;;;;;;4.90;1.92;;;;;;;;;;3586098;40;20388;-54
2021/04/08 00:09:05;;;;;;;5.75;2.67;;;;;;;;;;3585852;40;20185;-53
2021/04/08 00:11:31;;;;;;;4.25;1.85;;;;;;;;;;3585549;40;20047;-53
2021/04/08 00:13:57;;;;;;;5.82;2.53;;;;;;;;;;3586386;40;20065;-50
2021/04/08 00:16:22;;;;;;;6.18;1.90;;;;;;;;;;3586821;40;20040;-52
2021/04/08 00:18:48;;;;;;;5.82;2.28;;;;;;;;;;3585333;40;20311;-53
2021/04/08 00:21:13;;;;;;;8.65;2.03;;;;;;;;;;3586482;40;20041;-49
2021/04/08 00:23:38;;;;;;;5.60;2.13;;;;;;;;;;3586298;40;20142;-53
2021/04/08 00:26:04;;;;;;;10.23;3.05;;;;;;;;;;3585856;40;20065;-54
2021/04/08 00:28:30;;;;;;;8.23;2.13;;;;;;;;;;3585685;40;20032;-49
2021/04/08 00:30:56;;;;;;;5.22;2.20;;;;;;;;;;3584985;40;20037;-51
2021/04/08 00:33:21;;;;;;;8.10;2.63;;;;;;;;;;3586322;40;20041;-50
2021/04/08 00:35:47;;;;;;;7.85;2.33;;;;;;;;;;3585814;40;20379;-52
2021/04/08 00:38:13;;;;;;;7.53;2.53;;;;;;;;;;3585778;40;20047;-53
2021/04/08 00:40:40;;;;;;;5.32;2.25;;;;;;;;;;3585952;40;20045;-52
2021/04/08 00:43:05;;;;;;;13.07;2.53;;;;;;;;;;3585795;40;20048;-49
2021/04/08 00:45:32;;;;;;;6.50;2.35;;;;;;;;;;3587125;40;20356;-54
2021/04/08 00:47:58;;;;;;;6.93;2.92;;;;;;;;;;3587362;40;20029;-51
2021/04/08 00:50:24;;;;;;;7.75;1.80;;;;;;;;;;3586796;40;20036;-50
2021/04/08 00:53:01;;;;;;;4.40;2.15;;;;;;;;;;3587519;40;20051;-52
2021/04/08 00:55:31;;;;;;;5.70;2.22;;;;;;;;;;3586926;40;20065;-52
2021/04/08 00:57:56;;;;;;;7.90;2.80;;;;;;;;;;3587335;40;20033;-53
2021/04/08 01:00:23;;;;;;;7.45;2.90;;;;;;;;;;3587852;40;20399;-55
2021/04/08 01:02:49;;;;;;;9.00;2.55;;;;;;;;;;3586613;40;20053;-56
2021/04/08 01:05:14;;;;;;;4.57;2.03;;;;;;;;;;3586664;40;20326;-55
2021/04/08 01:07:40;;;;;;;7.75;2.50;;;;;;;;;;3587110;40;20084;-51
2021/04/08 01:10:11;;;;;;;10.55;2.90;;;;;;;;;;3587330;40;20049;-53
2021/04/08 01:12:36;;;;;;;5.93;2.25;;;;;;;;;;3587055;40;20036;-49
2021/04/08 01:15:06;;;;;;;6.47;2.55;;;;;;;;;;3587416;40;20039;-52
2021/04/08 01:17:41;;;;;;;4.82;2.30;;;;;;;;;;3587512;40;20052;-50
2021/04/08 01:20:33;;;;;;;6.38;2.38;;;;;;;;;;3587591;40;20096;-51
2021/04/08 01:23:22;;;;;;;7.72;2.38;;;;;;;;;;3587152;40;20055;-54
2021/04/08 01:25:57;;;;;;;5.85;2.22;;;;;;;;;;3586476;40;20053;-53
2021/04/08 01:28:45;;;;;;;6.95;2.60;;;;;;;;;;3587588;40;20060;-53
2021/04/08 01:31:12;;;;;;;12.85;3.28;;;;;;;;;;3587186;40;20069;-52
2021/04/08 01:33:41;;;;;;;8.00;2.65;;;;;;;;;;3586037;40;20044;-50
2021/04/08 01:36:15;;;;;;;6.55;2.78;;;;;;;;;;3587199;40;20051;-53
2021/04/08 01:38:46;;;;;;;6.82;2.55;;;;;;;;;;3587579;40;20457;-53
2021/04/08 01:41:12;;;;;;;;;;;;;;;;;;3587384;40;20054;-53
2021/04/08 01:43:42;;;;;;;15.38;3.20;;;;;;;;;;3587528;40;20204;-53
2021/04/08 01:46:08;;;;;;;8.05;2.55;;;;;;;;;;3586139;40;20360;-53
2021/04/08 01:48:36;;;;;;;6.40;2.20;;;;;;;;;;3586570;40;20485;-53
2021/04/08 01:51:04;;;;;;;9.95;3.03;;;;;;;;;;3586648;40;20056;-50
2021/04/08 01:53:32;;;;;;;9.95;3.38;;;;;;;;;;3587095;40;20048;-51
2021/04/08 01:56:00;;;;;;;7.65;3.53;;;;;;;;;;3586923;40;20033;-51
2021/04/08 01:58:28;;;;;;;6.07;2.90;;;;;;;;;;3587113;40;20045;-54
2021/04/08 02:00:54;;;;;;;17.50;3.47;;;;;;;;;;3586652;40;20543;-50
2021/04/08 02:03:21;;;;;;;7.32;2.90;;;;;;;;;;3587098;40;20055;-51
2021/04/08 02:05:48;;;;;;;10.38;2.63;;;;;;;;;;3587128;40;20072;-50
2021/04/08 02:08:14;;;;;;;9.75;2.75;;;;;;;;;;3587031;40;20050;-54
2021/04/08 02:10:42;;;;;;;8.32;3.15;;;;;;;;;;3586615;40;20118;-55
2021/04/08 02:13:11;;;;;;;8.73;3.22;;;;;;;;;;3587604;40;20033;-54
2021/04/08 02:15:37;;;;;;;6.68;3.00;;;;;;;;;;3587245;40;20068;-53
2021/04/08 02:18:03;;;;;;;9.82;3.60;;;;;;;;;;3586750;40;20031;-53
2021/04/08 02:20:32;;;;;;;12.43;4.00;;;;;;;;;;3586630;40;20055;-51
2021/04/08 02:23:01;;;;;;;9.35;2.47;;;;;;;;;;3586814;40;20421;-50
2021/04/08 02:25:30;;;;;;;11.95;3.20;;;;;;;;;;3587030;40;20090;-53
2021/04/08 02:27:58;;;;;;;7.13;2.85;;;;;;;;;;3585638;40;20032;-51
2021/04/08 02:30:25;;;;;;;8.13;3.75;;;;;;;;;;3586820;40;20036;-52
2021/04/08 02:32:52;;;;;;;8.23;3.10;;;;;;;;;;3586731;40;20032;-51
2021/04/08 02:35:18;;;;;;;8.90;3.28;;;;;;;;;;3586237;40;20576;-53
2021/04/08 02:37:45;;;;;;;10.05;2.80;;;;;;;;;;3586928;40;20033;-52
2021/04/08 02:40:15;;;;;;;7.88;2.97;;;;;;;;;;3586713;40;20024;-52
2021/04/08 02:42:40;;;;;;;9.23;3.72;;;;;;;;;;3586865;40;20036;-53
2021/04/08 02:45:09;;;;;;;7.65;2.97;;;;;;;;;;3586118;40;20067;-51
2021/04/08 02:47:34;;;;;;;11.10;3.13;;;;;;;;;;3586458;40;20133;-53
2021/04/08 02:50:00;;;;;;;6.50;2.85;;;;;;;;;;3586827;40;20048;-50
2021/04/08 02:52:48;;;;;;;8.73;3.58;;;;;;;;;;3583346;40;20531;-50
2021/04/08 02:55:26;;;;;;;7.60;3.28;;;;;;;;;;3585843;40;20042;-52
2021/04/08 02:58:03;;;;;;;7.95;2.90;;;;;;;;;;3586463;40;20028;-53
2021/04/08 03:00:31;;;;;;;6.13;2.72;;;;;;;;;;3586105;40;20084;-52
2021/04/08 03:03:06;;;;;;;8.13;3.33;;;;;;;;;;3586713;40;20090;-51
2021/04/08 03:05:34;;;;;;;9.23;3.17;;;;;;;;;;3586451;40;20029;-52
2021/04/08 03:08:04;;;;;;;7.57;3.47;;;;;;;;;;3586469;40;20125;-53
2021/04/08 03:10:30;;;;;;;10.00;3.40;;;;;;;;;;3585711;40;20044;-52
2021/04/08 03:13:00;;;;;;;8.57;3.33;;;;;;;;;;3586718;40;20045;-51
2021/04/08 03:15:34;;;;;;;6.78;3.13;;;;;;;;;;3586255;40;20154;-52
2021/04/08 03:18:02;;;;;;;7.40;3.28;;;;;;;;;;3586292;40;20041;-54
2021/04/08 03:20:28;;;;;;;9.70;3.50;;;;;;;;;;3585662;40;20084;-50
2021/04/08 03:22:55;;;;;;;5.72;3.10;;;;;;;;;;3586633;40;20338;-53
2021/04/08 03:25:21;;;;;;;8.27;3.25;;;;;;;;;;3586706;40;20124;-52
2021/04/08 03:27:48;;;;;;;8.63;4.40;;;;;;;;;;3584008;40;20052;-55
2021/04/08 03:30:15;;;;;;;8.52;3.53;;;;;;;;;;3584978;40;20032;-51
2021/04/08 03:32:41;;;;;;;7.07;3.28;;;;;;;;;;3584927;40;20054;-54
2021/04/08 03:35:08;;;;;;;7.85;3.92;;;;;;;;;;3586308;40;20037;-49
2021/04/08 03:37:34;;;;;;;10.55;4.03;;;;;;;;;;3585235;40;20028;-53
2021/04/08 03:40:02;;;;;;;8.68;4.43;;;;;;;;;;3586596;40;20081;-53
2021/04/08 03:42:29;;;;;;;9.27;3.92;;;;;;;;;;3586329;40;20031;-48
2021/04/08 03:44:54;;;;;;;6.88;3.88;;;;;;;;;;3585753;40;20040;-50
2021/04/08 03:47:22;;;;;;;8.30;3.55;;;;;;;;;;3585977;40;20044;-51
2021/04/08 03:49:50;;;;;;;9.65;3.65;;;;;;;;;;3585148;40;20032;-50
2021/04/08 03:52:17;;;;;;;8.15;3.78;;;;;;;;;;3585302;40;20039;-51
2021/04/08 03:54:43;;;;;;;9.43;3.78;;;;;;;;;;3586443;40;20098;-48
2021/04/08 03:57:15;;;;;;;11.43;3.97;;;;;;;;;;3585459;40;20052;-51
2021/04/08 03:59:43;;;;;;;9.02;3.47;;;;;;;;;;3585637;40;20056;-54
2021/04/08 04:02:09;;;;;;;15.50;4.50;;;;;;;;;;3586260;40;20114;-48
2021/04/08 04:04:34;;;;;;;6.75;3.30;;;;;;;;;;3586976;40;20021;-52
2021/04/08 04:07:00;;;;;;;7.28;3.47;;;;;;;;;;3585923;40;20504;-50
2021/04/08 04:09:26;;;;;;;10.45;4.78;;;;;;;;;;3585993;40;20058;-51
2021/04/08 04:11:53;;;;;;;12.73;4.20;;;;;;;;;;3586339;40;20032;-54
2021/04/08 04:14:21;;;;;;;9.77;4.28;;;;;;;;;;3585307;40;20036;-56
2021/04/08 04:16:48;;;;;;;11.13;4.60;;;;;;;;;;3586165;40;20033;-49
2021/04/08 04:19:14;;;;;;;11.20;4.65;;;;;;;;;;3584638;40;20606;-54
2021/04/08 04:21:40;;;;;;;7.05;3.42;;;;;;;;;;3586150;40;20049;-51
2021/04/08 04:24:06;;;;;;;6.65;3.78;;;;;;;;;;3586370;40;20041;-54
2021/04/08 04:26:31;;;;;;;11.60;4.38;;;;;;;;;;3586128;40;20027;-47
2021/04/08 04:28:58;;;;;;;7.38;3.17;;;;;;;;;;3585643;40;20048;-53
2021/04/08 04:31:23;;;;;;;11.65;3.50;;;;;;;;;;3586254;40;20036;-51
2021/04/08 04:33:49;;;;;;;7.28;4.28;;;;;;;;;;3586355;40;20032;-48
2021/04/08 04:36:14;;;;;;;7.47;3.35;;;;;;;;;;3586363;40;20055;-50
2021/04/08 04:38:40;;;;;;;8.70;3.95;;;;;;;;;;3585746;40;20388;-50
2021/04/08 04:41:05;;;;;;;8.40;3.72;;;;;;;;;;3586501;40;20036;-50
2021/04/08 04:43:31;;;;;;;8.55;3.17;;;;;;;;;;3585052;40;20068;-50
2021/04/08 04:45:56;;;;;;;9.57;4.05;;;;;;;;;;3585294;40;20039;-51
2021/04/08 04:48:22;;;;;;;8.32;3.80;;;;;;;;;;3586356;40;20330;-54
2021/04/08 04:50:50;;;;;;;6.50;3.45;;;;;;;;;;3586202;40;20396;-52
2021/04/08 04:53:16;;;;;;;7.13;3.63;;;;;;;;;;3585516;40;20033;-51
2021/04/08 04:55:41;;;;;;;9.85;4.15;;;;;;;;;;3585301;40;20047;-50
2021/04/08 04:58:06;;;;;;;9.30;4.05;;;;;;;;;;3585753;40;20043;-48
2021/04/08 05:00:32;;;;;;;11.88;4.00;;;;;;;;;;3586031;40;20040;-49
2021/04/08 05:02:57;;;;;;;7.50;4.07;;;;;;;;;;3585977;40;20040;-49
2021/04/08 05:05:23;;;;;;;8.18;4.40;;;;;;;;;;3585476;40;20060;-48
2021/04/08 05:07:48;;;;;;;7.30;4.50;;;;;;;;;;3585528;40;20056;-50
2021/04/08 05:10:13;;;;;;;8.95;4.18;;;;;;;;;;3586086;40;20029;-52
2021/04/08 05:12:39;;;;;;;7.70;4.90;;;;;;;;;;3585022;40;20069;-52
2021/04/08 05:15:06;;;;;;;11.32;4.95;;;;;;;;;;3585193;40;20078;-51
2021/04/08 05:17:31;;;;;;;10.40;5.32;;;;;;;;;;3585618;40;20032;-49
2021/04/08 05:19:57;;;;;;;8.18;4.70;;;;;;;;;;3585478;40;20123;-52
2021/04/08 05:22:23;;;;;;;12.25;4.82;;;;;;;;;;3585892;40;20137;-52
2021/04/08 05:24:48;;;;;;;12.02;4.97;;;;;;;;;;3585779;40;20060;-51
2021/04/08 05:27:14;;;;;;;11.02;5.45;;;;;;;;;;3585508;40;20029;-51
2021/04/08 05:29:39;;;;;;;10.40;4.82;;;;;;;;;;3585573;40;20035;-49
2021/04/08 05:32:05;;;;;;;11.60;5.10;;;;;;;;;;3585519;40;20028;-48
2021/04/08 05:34:30;;;;;;;7.90;4.78;;;;;;;;;;3587323;40;20260;-51
2021/04/08 05:36:56;;;;;;;11.50;5.60;;;;;;;;;;3587501;40;20352;-49
2021/04/08 05:39:21;;;;;;;8.57;5.10;;;;;;;;;;3586887;40;20268;-52
2021/04/08 05:41:46;;;;;;;9.40;4.97;;;;;;;;;;3586654;40;20039;-51
2021/04/08 05:44:12;;;;;;;16.05;5.50;;;;;;;;;;3586591;40;20044;-51
2021/04/08 05:46:37;;;;;;;8.05;5.10;;;;;;;;;;3586607;40;20053;-52
2021/04/08 05:49:03;;;;;;;10.68;5.35;;;;;;;;;;3587148;40;20040;-52
2021/04/08 05:51:28;;;;;;;7.97;4.90;;;;;;;;;;3586309;40;20074;-48
2021/04/08 05:53:54;;;;;;;7.38;4.93;;;;;;;;;;3586885;40;20088;-50
2021/04/08 05:56:19;;;;;;;11.07;5.85;;;;;;;;;;3587260;40;20052;-51
2021/04/08 05:58:44;;;;;;;7.90;4.90;;;;;;;;;;3586887;40;20080;-50
2021/04/08 06:01:10;;;;;;;9.90;4.80;;;;;;;;;;3587483;40;20331;-50
2021/04/08 06:03:35;;;;;;;9.15;5.53;;;;;;;;;;3585192;40;20385;-51
2021/04/08 06:06:01;;;;;;;7.82;5.47;;;;;;;;;;3587193;40;20036;-52
2021/04/08 06:08:26;;;;;;;10.63;5.80;;;;;;;;;;3587014;40;20040;-50
2021/04/08 06:10:51;;;;;;;10.82;6.30;;;;;;;;;;3587039;40;20058;-51
2021/04/08 06:13:17;;;;;;;15.32;6.57;;;;;;;;;;3586849;40;20033;-54
2021/04/08 06:15:42;;;;;;;10.68;6.47;;;;;;;;;;3586757;40;20395;-50
2021/04/08 06:18:08;;;;;;;11.32;5.68;;;;;;;;;;3587132;40;20032;-48
2021/04/08 06:20:33;;;;;;;8.15;5.97;;;;;;;;;;3586885;40;20299;-51
2021/04/08 06:22:59;;;;;;;11.05;5.78;;;;;;;;;;3586299;40;20052;-53
2021/04/08 06:25:24;;;;;;;11.75;5.82;;;;;;;;;;3586516;40;20133;-50
2021/04/08 06:27:50;;;;;;;10.70;5.88;;;;;;;;;;3586519;40;20039;-54
2021/04/08 06:30:17;;;;;;;14.25;6.47;;;;;;;;;;3587357;40;20117;-52
2021/04/08 06:32:43;;;;;;;15.55;6.20;;;;;;;;;;3586064;40;20032;-53
2021/04/08 06:35:09;;;;;;;11.40;5.85;;;;;;;;;;3586670;40;20073;-52
2021/04/08 06:37:34;;;;;;;15.10;6.82;;;;;;;;;;3586218;40;20035;-52
2021/04/08 06:40:00;;;;;;;11.70;6.15;;;;;;;;;;3586188;40;20583;-51
2021/04/08 06:42:26;;;;;;;13.30;7.28;;;;;;;;;;3586053;40;20866;-48
2021/04/08 06:44:53;;;;;;;8.77;5.88;;;;;;;;;;3587082;40;20048;-46
2021/04/08 06:47:41;;;;;;;13.15;6.57;;;;;;;;;;3586866;40;20052;-52
2021/04/08 06:50:08;;;;;;;11.18;6.40;;;;;;;;;;3586556;40;20060;-51
2021/04/08 06:52:34;;;;;;;9.75;6.53;;;;;;;;;;3585791;40;20102;-47
2021/04/08 06:55:00;;;;;;;9.50;6.10;;;;;;;;;;3585166;40;20049;-48
2021/04/08 06:57:26;;;;;;;8.13;5.93;;;;;;;;;;3586328;40;20044;-49
2021/04/08 06:59:52;;;;;;;10.32;6.22;;;;;;;;;;3586710;40;20040;-47
2021/04/08 07:02:21;;;;;;;11.13;6.97;;;;;;;;;;3587116;40;20037;-50
2021/04/08 07:04:47;;;;;;;13.65;6.45;;;;;;;;;;3585671;40;20056;-52
2021/04/08 07:07:14;;;;;;;11.80;6.20;;;;;;;;;;3586732;40;20052;-54
2021/04/08 07:09:40;;;;;;;12.23;6.85;;;;;;;;;;3586455;40;20242;-53
2021/04/08 07:12:06;;;;;;;8.80;5.95;;;;;;;;;;3586981;40;20094;-50
2021/04/08 07:14:31;;;;;;;12.80;6.88;;;;;;;;;;3586153;40;20052;-49
2021/04/08 07:16:57;;;;;;;13.27;6.43;;;;;;;;;;3586672;40;20166;-52
2021/04/08 07:19:22;;;;;;;15.40;7.18;;;;;;;;;;3586974;40;20052;-51
2021/04/08 07:21:47;;;;;;;12.20;6.65;;;;;;;;;;3585965;40;20315;-51
2021/04/08 07:24:18;;;;;;;13.15;6.30;;;;;;;;;;3586636;40;20021;-54
2021/04/08 07:26:57;;;;;;;9.18;6.05;;;;;;;;;;3586663;40;20024;-53
2021/04/08 07:29:43;;;;;;;9.43;6.25;;;;;;;;;;3585677;40;20041;-48
2021/04/08 07:32:09;;;;;;;11.88;5.70;;;;;;;;;;3586765;40;20029;-51
2021/04/08 07:34:47;;;;;;;8.95;5.78;;;;;;;;;;3586169;40;20029;-51
2021/04/08 07:37:13;;;;;;;11.05;6.22;;;;;;;;;;3585011;40;20126;-51
2021/04/08 07:39:41;;;;;;;11.98;5.60;;;;;;;;;;3585959;40;20037;-48
2021/04/08 07:42:11;;;;;;;13.93;7.03;;;;;;;;;;3586248;40;20063;-50
2021/04/08 07:44:49;;;;;;;12.93;6.32;;;;;;;;;;3586441;40;20048;-47
2021/04/08 07:47:36;;;;;;;14.52;6.40;;;;;;;;;;3586708;40;20069;-53
2021/04/08 07:50:04;;;;;;;10.80;6.65;;;;;;;;;;3586306;40;20362;-50
2021/04/08 07:52:47;;;;;;;11.43;6.38;;;;;;;;;;3586124;40;20051;-50
2021/04/08 07:55:14;;;;;;;11.43;6.38;;;;;;;;;;3585756;40;20372;-51
2021/04/08 07:58:01;;;;;;;9.48;5.95;;;;;;;;;;3586123;40;20127;-47
2021/04/08 08:00:29;;;;;;;12.95;6.93;;;;;;;;;;3586077;40;20056;-51
2021/04/08 08:02:58;;;;;;;9.00;4.88;;;;;;;;;;3585628;40;20036;-53
2021/04/08 08:05:27;;;;;;;11.95;5.95;;;;;;;;;;3585848;40;20047;-50
2021/04/08 08:07:54;;;;;;;13.32;6.55;;;;;;;;;;3586181;40;20039;-48
2021/04/08 08:10:23;;;;;;;9.32;5.82;;;;;;;;;;3586147;40;20053;-48
2021/04/08 08:12:49;;;;;;;9.68;5.93;;;;;;;;;;3586582;40;20051;-50
2021/04/08 08:15:18;;;;;;;14.13;6.00;;;;;;;;;;3585819;40;20024;-49
2021/04/08 08:17:44;;;;;;;11.52;5.72;;;;;;;;;;3586029;40;20162;-52
2021/04/08 08:20:10;;;;;;;7.20;5.20;;;;;;;;;;3585799;40;20036;-53
2021/04/08 08:22:37;;;;;;;13.00;4.80;;;;;;;;;;3585672;40;20024;-53
2021/04/08 08:25:04;;;;;;;8.85;4.93;;;;;;;;;;3586410;40;20036;-53
2021/04/08 08:27:49;;;;;;;9.27;4.93;;;;;;;;;;3585834;40;20036;-54
2021/04/08 08:30:23;;;;;;;10.65;5.22;;;;;;;;;;3585400;40;20029;-51
2021/04/08 08:33:11;;;;;;;12.48;4.72;;;;;;;;;;3586132;40;20064;-51
2021/04/08 08:35:37;;;;;;;6.72;4.30;;;;;;;;;;3584710;40;20032;-53
2021/04/08 08:38:19;;;;;;;10.20;4.88;;;;;;;;;;3585676;40;20035;-53
2021/04/08 08:40:47;;;;;;;11.73;5.13;;;;;;;;;;3584972;40;20072;-51
2021/04/08 08:43:14;;;;;;;13.52;5.15;;;;;;;;;;3585672;40;20080;-54
2021/04/08 08:45:40;;;;;;;16.88;6.28;;;;;;;;;;3585966;40;20040;-52
2021/04/08 08:48:11;;;;;;;11.23;5.45;;;;;;;;;;3585556;40;20033;-52
2021/04/08 08:50:38;;;;;;;11.53;6.07;;;;;;;;;;3584950;40;20113;-54
2021/04/08 08:53:05;;;;;;;13.40;5.20;;;;;;;;;;3585750;40;20089;-54
2021/04/08 08:55:31;;;;;;;10.23;5.00;;;;;;;;;;3585756;40;20044;-52
2021/04/08 08:57:57;;;;;;;11.15;6.00;;;;;;;;;;3585274;40;20040;-52
2021/04/08 09:00:25;;;;;;;25.13;11.05;;;;;;;;;;3585816;40;20029;-51
2021/04/08 09:02:52;;;;;;;9.38;5.20;;;;;;;;;;3585927;40;20032;-49
2021/04/08 09:05:20;;;;;;;10.43;5.57;;;;;;;;;;3586729;40;20052;-54
2021/04/08 09:07:48;;;;;;;14.68;5.18;;;;;;;;;;3586590;40;20044;-48
2021/04/08 09:10:21;;;;;;;13.43;8.23;;;;;;;;;;3587057;40;20457;-52
2021/04/08 09:12:49;;;;;;;12.07;5.10;;;;;;;;;;3587315;40;20378;-54
2021/04/08 09:15:14;;;;;;;12.65;4.88;;;;;;;;;;3587506;40;20025;-50
2021/04/08 09:17:45;;;;;;;12.82;5.30;;;;;;;;;;3587005;40;20059;-52
2021/04/08 09:20:13;;;;;;;14.85;4.82;;;;;;;;;;3587209;40;20446;-51
2021/04/08 09:23:00;;;;;;;9.88;4.30;;;;;;;;;;3586937;40;20040;-51
2021/04/08 09:25:51;;;;;;;7.25;4.63;;;;;;;;;;3586947;40;20415;-53
2021/04/08 09:28:18;;;;;;;8.63;4.22;;;;;;;;;;3586374;40;20040;-50
2021/04/08 09:33:40;;;;;;;10.80;4.53;;;;;;;;;;3586463;40;20279;-51
2021/04/08 09:36:18;;;;;;;10.98;5.60;;;;;;;;;;3586476;40;20037;-54
2021/04/08 09:38:43;;;;;;;9.57;4.95;;;;;;;;;;3586769;40;20042;-52
2021/04/08 09:41:09;;;;;;;7.53;4.65;;;;;;;;;;3587046;40;20384;-51
2021/04/08 09:43:36;;;;;;;10.77;4.95;;;;;;;;;;3586943;40;20344;-53
2021/04/08 09:46:04;;;;;;;11.57;5.07;;;;;;;;;;3586185;40;20029;-53
2021/04/08 09:48:52;;;;;;;14.82;4.72;;;;;;;;;;3586668;40;20048;-53
2021/04/08 09:51:29;;;;;;;10.27;4.80;;;;;;;;;;3586979;40;20029;-54
2021/04/08 09:53:54;;;;;;;9.32;4.65;;;;;;;;;;3586505;40;20028;-54
2021/04/08 09:56:41;;;;;;;9.77;4.65;;;;;;;;;;3586944;40;20047;-50
2021/04/08 09:59:07;;;;;;;13.65;4.85;;;;;;;;;;3587122;40;20509;-54
2021/04/08 10:01:33;;;;;;;8.35;4.65;;;;;;;;;;3586462;40;20118;-53
2021/04/08 10:04:10;;;;;;;11.23;5.53;;;;;;;;;;3586338;40;20036;-52
2021/04/08 10:06:35;;;;;;;9.02;4.55;;;;;;;;;;3586189;40;20371;-54
2021/04/08 10:09:16;;;;;;;6.70;3.65;;;;;;;;;;3586674;40;20033;-51
2021/04/08 10:11:42;;;;;;;17.73;3.60;;;;;;;;;;3586437;40;20028;-51
2021/04/08 10:14:16;;;;;;;7.35;3.70;;;;;;;;;;3587161;40;20376;-49
2021/04/08 10:16:41;;;;;;;8.45;5.22;;;;;;;;;;3586806;40;20064;-53
2021/04/08 10:19:07;;;;;;;12.38;5.32;;;;;;;;;;3587134;40;20040;-53
2021/04/08 10:21:32;;;;;;;8.85;3.92;;;;;;;;;;3585878;40;20033;-53
2021/04/08 10:23:58;;;;;;;9.32;3.58;;;;;;;;;;3587141;40;20068;-52
2021/04/08 10:26:31;;;;;;;7.03;3.60;;;;;;;;;;3586878;40;20041;-52
2021/04/08 10:28:59;;;;;;;9.60;4.20;;;;;;;;;;3585932;40;20393;-50
2021/04/08 10:31:29;;;;;;;7.72;3.65;;;;;;;;;;3586762;40;20041;-54
2021/04/08 10:34:16;;;;;;;8.02;3.90;;;;;;;;;;3587400;40;20422;-54
2021/04/08 10:36:49;;;;;;;6.30;3.58;;;;;;;;;;3586845;40;20029;-50
2021/04/08 10:39:27;;;;;;;13.38;4.05;;;;;;;;;;3586206;40;20037;-51
2021/04/08 10:42:04;;;;;;;11.80;4.28;;;;;;;;;;3586981;40;20036;-53
2021/04/08 10:44:40;;;;;;;6.68;3.30;;;;;;;;;;3586943;40;20047;-54
2021/04/08 10:47:06;;;;;;;11.73;3.58;;;;;;;;;;3586020;40;20044;-54
2021/04/08 10:49:44;;;;;;;7.70;3.38;;;;;;;;;;3586924;40;20138;-55
2021/04/08 10:52:15;;;;;;;7.07;3.20;;;;;;;;;;3586726;40;20052;-53
2021/04/08 10:54:43;;;;;;;7.82;3.25;;;;;;;;;;3586820;40;20365;-53
2021/04/08 10:57:09;;;;;;;8.27;3.05;;;;;;;;;;3585815;40;20044;-54
2021/04/08 10:59:38;;;;;;;5.72;2.60;;;;;;;;;;3586324;40;20032;-54
2021/04/08 11:02:20;;;;;;;7.30;2.55;;;;;;;;;;3586803;40;20040;-51
2021/04/08 11:04:46;;;;;;;8.32;2.45;;;;;;;;;;3586545;40;20024;-50
2021/04/08 11:07:12;;;;;;;6.93;2.75;;;;;;;;;;3585892;40;20029;-49
2021/04/08 11:09:37;;;;;;;5.07;1.80;;;;;;;;;;3586344;40;20482;-50
2021/04/08 11:12:26;;;;;;;5.07;2.25;;;;;;;;;;3586524;40;20036;-51
2021/04/08 11:14:54;;;;;;;5.80;1.98;;;;;;;;;;3585451;40;20033;-52
2021/04/08 11:17:21;;;;;;;11.75;2.90;;;;;;;;;;3586133;40;20041;-54
2021/04/08 11:19:46;;;;;;;6.10;2.53;;;;;;;;;;3586260;40;20428;-49
2021/04/08 11:22:15;;;;;;;8.23;1.90;;;;;;;;;;3586648;40;20035;-52
2021/04/08 11:24:41;;;;;;;7.38;2.00;;;;;;;;;;3585890;40;20052;-53
2021/04/08 11:27:08;;;;;;;6.78;2.20;;;;;;;;;;3586263;40;20145;-50
2021/04/08 11:29:33;;;;;;;6.63;2.20;;;;;;;;;;3586471;40;20113;-50
2021/04/08 11:32:11;;;;;;;7.25;2.30;;;;;;;;;;3585790;40;20049;-50
2021/04/08 11:34:45;;;;;;;5.38;2.42;;;;;;;;;;3586339;40;20045;-51
2021/04/08 11:37:13;;;;;;;5.32;2.80;;;;;;;;;;3586622;40;20569;-53
2021/04/08 11:39:39;;;;;;;17.00;3.63;;;;;;;;;;3586862;40;20048;-48
2021/04/08 11:42:22;;;;;;;6.15;2.30;;;;;;;;;;3585416;40;20039;-52
2021/04/08 11:44:50;;;;;;;5.50;2.58;;;;;;;;;;3586288;40;20036;-51
2021/04/08 11:47:18;;;;;;;7.40;2.63;;;;;;;;;;3586816;40;20029;-54
2021/04/08 11:49:45;;;;;;;7.53;2.55;;;;;;;;;;3585974;40;20057;-51
2021/04/08 11:52:13;;;;;;;9.30;2.95;;;;;;;;;;3585728;40;20031;-53
2021/04/08 11:54:57;;;;;;;11.32;2.42;;;;;;;;;;3586287;40;20044;-52
2021/04/08 11:57:23;;;;;;;7.28;2.33;;;;;;;;;;3585748;40;20048;-53
2021/04/08 11:59:49;;;;;;;7.13;2.70;;;;;;;;;;3586158;40;20037;-53
2021/04/08 12:02:31;;;;;;;5.65;2.33;;;;;;;;;;3586749;40;20052;-50
2021/04/08 12:04:56;;;;;;;7.88;2.45;;;;;;;;;;3585723;40;20090;-51
2021/04/08 12:07:22;;;;;;;6.53;2.10;;;;;;;;;;3585257;40;20040;-53
2021/04/08 12:09:48;;;;;;;7.25;2.50;;;;;;;;;;3586163;40;20059;-55
2021/04/08 12:12:14;;;;;;;5.43;2.53;;;;;;;;;;3596130;39;20041;-53
2021/04/08 12:15:04;;;;;;;6.65;2.30;;;;;;;;;;3586186;40;20036;-51
2021/04/08 12:17:30;;;;;;;10.35;2.42;;;;;;;;;;3585508;40;20134;-52
2021/04/08 12:20:15;;;;;;;6.28;2.70;;;;;;;;;;3585777;40;20035;-50
2021/04/08 12:22:41;;;;;;;7.38;2.90;;;;;;;;;;3585714;40;20050;-53
2021/04/08 12:25:13;;;;;;;8.02;2.78;;;;;;;;;;3585720;40;20628;-52
2021/04/08 12:27:39;;;;;;;10.73;4.78;;;;;;;;;;3585477;40;20025;-51
2021/04/08 12:30:07;;;;;;;9.50;2.85;;;;;;;;;;3586039;40;20287;-49
2021/04/08 12:32:32;;;;;;;4.88;2.10;;;;;;;;;;3585458;40;20037;-49
2021/04/08 12:34:58;;;;;;;8.45;3.13;;;;;;;;;;3586301;40;20036;-53
2021/04/08 12:37:25;;;;;;;5.78;1.80;;;;;;;;;;3585480;40;20146;-53
2021/04/08 12:39:51;;;;;;;6.70;2.97;;;;;;;;;;3587147;40;20048;-52
2021/04/08 12:42:17;;;;;;;8.77;2.88;;;;;;;;;;3586887;40;20072;-51
2021/04/08 12:44:43;;;;;;;6.60;2.58;;;;;;;;;;3587504;40;20048;-54
2021/04/08 12:47:09;;;;;;;6.28;2.38;;;;;;;;;;3587433;40;20040;-51
2021/04/08 12:49:34;;;;;;;6.80;2.40;;;;;;;;;;3587542;40;20060;-51
2021/04/08 12:52:00;;;;;;;7.07;2.45;;;;;;;;;;3588211;40;20600;-51
2021/04/08 12:54:25;;;;;;;6.15;2.38;;;;;;;;;;3587441;40;20051;-52
2021/04/08 12:56:51;;;;;;;5.18;1.92;;;;;;;;;;3586994;40;20044;-51
2021/04/08 12:59:16;;;;;;;5.38;2.15;;;;;;;;;;3587585;40;20101;-52
2021/04/08 13:01:42;;;;;;;6.10;2.60;;;;;;;;;;3587016;40;20032;-52
2021/04/08 13:04:07;;;;;;;6.70;2.60;;;;;;;;;;3587169;40;20346;-52
2021/04/08 13:06:32;;;;;;;4.45;1.95;;;;;;;;;;3586895;40;20037;-51
2021/04/08 13:08:58;;;;;;;6.05;2.92;;;;;;;;;;3587005;40;20039;-52
2021/04/08 13:11:23;;;;;;;7.53;2.20;;;;;;;;;;3586884;40;20047;-49
2021/04/08 13:13:49;;;;;;;9.27;2.50;;;;;;;;;;3586676;40;20386;-50
2021/04/08 13:16:14;;;;;;;6.93;1.80;;;;;;;;;;3586566;40;20043;-52
2021/04/08 13:18:39;;;;;;;7.78;2.35;;;;;;;;;;3586320;40;20027;-53
2021/04/08 13:21:05;;;;;;;4.72;2.20;;;;;;;;;;3586425;40;20064;-52
2021/04/08 13:23:30;;;;;;;7.50;2.38;;;;;;;;;;3587385;40;20044;-52
2021/04/08 13:25:55;;;;;;;5.72;2.42;;;;;;;;;;3587554;40;20029;-52
2021/04/08 13:28:21;;;;;;;7.25;2.13;;;;;;;;;;3587337;40;20033;-49
2021/04/08 13:30:46;;;;;;;6.53;2.38;;;;;;;;;;3586889;40;20064;-52
2021/04/08 13:33:12;;;;;;;7.55;2.85;;;;;;;;;;3587861;40;20029;-54
2021/04/08 13:35:37;;;;;;;6.95;2.45;;;;;;;;;;3586870;40;20660;-52
2021/04/08 13:38:04;;;;;;;12.07;3.25;;;;;;;;;;3586044;40;20403;-52
2021/04/08 13:40:30;;;;;;;7.03;3.30;;;;;;;;;;3586872;40;20056;-50
2021/04/08 13:42:56;;;;;;;9.45;2.95;;;;;;;;;;3586600;40;20064;-49
2021/04/08 13:45:22;;;;;;;5.50;2.05;;;;;;;;;;3587131;40;20372;-53
2021/04/08 13:47:49;;;;;;;5.07;2.05;;;;;;;;;;3585929;40;20033;-49
2021/04/08 13:50:15;;;;;;;4.18;2.03;;;;;;;;;;3587041;40;20101;-51
2021/04/08 13:52:41;;;;;;;6.95;2.25;;;;;;;;;;3587299;40;20141;-51
2021/04/08 13:55:10;;;;;;;6.38;2.50;;;;;;;;;;3586744;40;20129;-51
2021/04/08 13:57:35;;;;;;;5.60;2.33;;;;;;;;;;3586221;40;20036;-53
2021/04/08 14:00:01;;;;;;;6.53;2.40;;;;;;;;;;3587247;40;20044;-54
2021/04/08 14:02:26;;;;;;;8.10;2.88;;;;;;;;;;3587063;40;20124;-48
2021/04/08 14:04:52;;;;;;;6.50;2.08;;;;;;;;;;3586743;40;20300;-52
2021/04/08 14:07:17;;;;;;;5.45;2.63;;;;;;;;;;3587307;40;20036;-52
2021/04/08 14:09:43;;;;;;;5.32;2.72;;;;;;;;;;3586783;40;20044;-53
2021/04/08 14:12:08;;;;;;;9.63;3.10;;;;;;;;;;3586532;40;20040;-53
2021/04/08 14:14:34;;;;;;;5.88;2.70;;;;;;;;;;3586605;40;20121;-54
2021/04/08 14:16:59;;;;;;;7.22;2.83;;;;;;;;;;3586679;40;20029;-51
2021/04/08 14:19:25;;;;;;;8.07;3.28;;;;;;;;;;3586992;40;20039;-50
2021/04/08 14:21:50;;;;;;;4.80;2.25;;;;;;;;;;3585986;40;20102;-54
2021/04/08 14:24:16;;;;;;;7.28;3.05;;;;;;;;;;3587206;40;20113;-51
2021/04/08 14:26:43;;;;;;;4.50;2.28;;;;;;;;;;3585928;40;20117;-50
2021/04/08 14:29:08;;;;;;;7.05;3.03;;;;;;;;;;3585042;40;20036;-51
2021/04/08 14:31:34;;;;;;;6.80;2.97;;;;;;;;;;3585592;40;20032;-55
2021/04/08 14:34:00;;;;;;;6.80;2.85;;;;;;;;;;3586158;40;20036;-50
2021/04/08 14:36:26;;;;;;;7.80;2.80;;;;;;;;;;3586232;40;20147;-51
2021/04/08 14:38:51;;;;;;;7.10;2.72;;;;;;;;;;3586994;40;20045;-54
2021/04/08 14:41:17;;;;;;;6.85;3.28;;;;;;;;;;3586636;40;20141;-52
2021/04/08 14:43:42;;;;;;;7.35;2.95;;;;;;;;;;3586040;40;20044;-49
2021/04/08 14:46:07;;;;;;;8.07;3.10;;;;;;;;;;3586376;40;20037;-54
2021/04/08 14:48:33;;;;;;;7.43;3.10;;;;;;;;;;3586251;40;20029;-53